sensor_id;sensor_type;location;lat;lon;timestamp;P1;durP1;ratioP1;P2;durP2;ratioP2
52608;SDS011;38503;48.544;12.142;2022-08-21T00:01:51;14.77;;;10.33;;
52608;SDS011;38503;48.544;12.142;2022-08-21T00:04:18;15.07;;;10.30;;
52608;SDS011;38503;48.544;12.142;2022-08-21T00:06:48;13.00;;;9.77;;
52608;SDS011;38503;48.544;12.142;2022-08-21T00:09:16;11.90;;;9.97;;
52608;SDS011;38503;48.544;12.142;2022-08-21T00:11:43;13.67;;;9.83;;
52608;SDS011;38503;48.544;12.142;2022-08-21T00:14:12;13.77;;;10.33;;
52608;SDS011;38503;48.544;12.142;2022-08-21T00:16:40;11.33;;;9.37;;
52608;SDS011;38503;48.544;12.142;2022-08-21T00:19:07;14.27;;;9.70;;
52608;SDS011;38503;48.544;12.142;2022-08-21T00:21:34;13.77;;;9.50;;
52608;SDS011;38503;48.544;12.142;2022-08-21T00:24:02;12.93;;;9.63;;
52608;SDS011;38503;48.544;12.142;2022-08-21T00:26:29;15.43;;;10.60;;
52608;SDS011;38503;48.544;12.142;2022-08-21T00:28:56;13.27;;;9.93;;
52608;SDS011;38503;48.544;12.142;2022-08-21T00:31:24;13.03;;;10.10;;
52608;SDS011;38503;48.544;12.142;2022-08-21T00:33:51;16.33;;;10.40;;
52608;SDS011;38503;48.544;12.142;2022-08-21T00:36:25;15.63;;;9.80;;
52608;SDS011;38503;48.544;12.142;2022-08-21T00:38:52;15.20;;;10.30;;
52608;SDS011;38503;48.544;12.142;2022-08-21T00:41:19;14.50;;;9.93;;
52608;SDS011;38503;48.544;12.142;2022-08-21T00:44:04;12.33;;;9.33;;
52608;SDS011;38503;48.544;12.142;2022-08-21T00:46:35;13.00;;;9.97;;
52608;SDS011;38503;48.544;12.142;2022-08-21T00:49:04;13.80;;;9.43;;
52608;SDS011;38503;48.544;12.142;2022-08-21T00:51:47;15.23;;;9.83;;
52608;SDS011;38503;48.544;12.142;2022-08-21T00:54:18;10.47;;;9.33;;
52608;SDS011;38503;48.544;12.142;2022-08-21T00:56:50;10.33;;;9.13;;
52608;SDS011;38503;48.544;12.142;2022-08-21T00:59:23;12.43;;;8.67;;
52608;SDS011;38503;48.544;12.142;2022-08-21T01:01:51;11.70;;;9.07;;
52608;SDS011;38503;48.544;12.142;2022-08-21T01:04:18;15.03;;;9.20;;
52608;SDS011;38503;48.544;12.142;2022-08-21T01:06:46;13.60;;;11.37;;
52608;SDS011;38503;48.544;12.142;2022-08-21T01:09:13;11.43;;;8.50;;
52608;SDS011;38503;48.544;12.142;2022-08-21T01:11:40;8.30;;;7.50;;
52608;SDS011;38503;48.544;12.142;2022-08-21T01:14:09;11.03;;;7.60;;
52608;SDS011;38503;48.544;12.142;2022-08-21T01:16:39;8.80;;;7.60;;
52608;SDS011;38503;48.544;12.142;2022-08-21T01:19:08;8.77;;;7.13;;
52608;SDS011;38503;48.544;12.142;2022-08-21T01:21:37;8.57;;;7.63;;
52608;SDS011;38503;48.544;12.142;2022-08-21T01:24:04;10.03;;;7.70;;
52608;SDS011;38503;48.544;12.142;2022-08-21T01:26:32;8.53;;;7.60;;
52608;SDS011;38503;48.544;12.142;2022-08-21T01:29:05;7.63;;;6.93;;
52608;SDS011;38503;48.544;12.142;2022-08-21T01:31:37;10.07;;;6.87;;
52608;SDS011;38503;48.544;12.142;2022-08-21T01:34:04;12.50;;;7.30;;
52608;SDS011;38503;48.544;12.142;2022-08-21T01:36:31;9.70;;;6.97;;
52608;SDS011;38503;48.544;12.142;2022-08-21T01:38:59;6.80;;;6.20;;
52608;SDS011;38503;48.544;12.142;2022-08-21T01:41:26;7.47;;;6.73;;
52608;SDS011;38503;48.544;12.142;2022-08-21T01:43:53;8.90;;;6.80;;
52608;SDS011;38503;48.544;12.142;2022-08-21T01:46:19;7.53;;;6.77;;
52608;SDS011;38503;48.544;12.142;2022-08-21T01:48:46;9.37;;;6.40;;
52608;SDS011;38503;48.544;12.142;2022-08-21T01:51:13;8.47;;;6.33;;
52608;SDS011;38503;48.544;12.142;2022-08-21T01:53:40;9.67;;;6.03;;
52608;SDS011;38503;48.544;12.142;2022-08-21T01:56:09;8.73;;;5.83;;
52608;SDS011;38503;48.544;12.142;2022-08-21T01:58:39;9.70;;;6.57;;
52608;SDS011;38503;48.544;12.142;2022-08-21T02:01:07;8.03;;;6.27;;
52608;SDS011;38503;48.544;12.142;2022-08-21T02:03:35;8.57;;;6.83;;
52608;SDS011;38503;48.544;12.142;2022-08-21T02:06:03;7.90;;;7.10;;
52608;SDS011;38503;48.544;12.142;2022-08-21T02:08:31;7.27;;;6.57;;
52608;SDS011;38503;48.544;12.142;2022-08-21T02:10:58;12.40;;;7.20;;
52608;SDS011;38503;48.544;12.142;2022-08-21T02:13:25;8.63;;;6.80;;
52608;SDS011;38503;48.544;12.142;2022-08-21T02:15:52;7.37;;;6.30;;
52608;SDS011;38503;48.544;12.142;2022-08-21T02:18:19;7.20;;;6.50;;
52608;SDS011;38503;48.544;12.142;2022-08-21T02:20:46;7.83;;;7.03;;
52608;SDS011;38503;48.544;12.142;2022-08-21T02:23:22;7.77;;;5.83;;
52608;SDS011;38503;48.544;12.142;2022-08-21T02:25:52;8.27;;;5.73;;
52608;SDS011;38503;48.544;12.142;2022-08-21T02:28:23;8.00;;;6.47;;
52608;SDS011;38503;48.544;12.142;2022-08-21T02:30:53;10.90;;;6.77;;
52608;SDS011;38503;48.544;12.142;2022-08-21T02:33:22;8.23;;;6.00;;
52608;SDS011;38503;48.544;12.142;2022-08-21T02:35:49;7.93;;;6.13;;
52608;SDS011;38503;48.544;12.142;2022-08-21T02:38:18;6.83;;;5.77;;
52608;SDS011;38503;48.544;12.142;2022-08-21T02:40:48;5.63;;;5.10;;
52608;SDS011;38503;48.544;12.142;2022-08-21T02:43:17;6.87;;;5.13;;
52608;SDS011;38503;48.544;12.142;2022-08-21T02:45:45;6.07;;;5.57;;
52608;SDS011;38503;48.544;12.142;2022-08-21T02:48:17;6.33;;;4.93;;
52608;SDS011;38503;48.544;12.142;2022-08-21T02:50:48;5.87;;;5.27;;
52608;SDS011;38503;48.544;12.142;2022-08-21T02:53:19;5.20;;;4.73;;
52608;SDS011;38503;48.544;12.142;2022-08-21T02:55:47;8.80;;;5.97;;
52608;SDS011;38503;48.544;12.142;2022-08-21T02:58:16;6.43;;;5.07;;
52608;SDS011;38503;48.544;12.142;2022-08-21T03:00:44;5.60;;;5.10;;
52608;SDS011;38503;48.544;12.142;2022-08-21T03:03:11;5.53;;;5.00;;
52608;SDS011;38503;48.544;12.142;2022-08-21T03:05:41;5.63;;;5.10;;
52608;SDS011;38503;48.544;12.142;2022-08-21T03:08:10;6.00;;;4.93;;
52608;SDS011;38503;48.544;12.142;2022-08-21T03:10:40;8.47;;;4.90;;
52608;SDS011;38503;48.544;12.142;2022-08-21T03:13:12;5.93;;;4.97;;
52608;SDS011;38503;48.544;12.142;2022-08-21T03:15:40;5.97;;;5.37;;
52608;SDS011;38503;48.544;12.142;2022-08-21T03:18:08;5.97;;;5.13;;
52608;SDS011;38503;48.544;12.142;2022-08-21T03:20:36;7.07;;;4.90;;
52608;SDS011;38503;48.544;12.142;2022-08-21T03:23:05;5.80;;;5.30;;
52608;SDS011;38503;48.544;12.142;2022-08-21T03:25:39;7.57;;;5.37;;
52608;SDS011;38503;48.544;12.142;2022-08-21T03:28:09;5.63;;;5.10;;
52608;SDS011;38503;48.544;12.142;2022-08-21T03:30:43;7.87;;;5.33;;
52608;SDS011;38503;48.544;12.142;2022-08-21T03:33:12;4.90;;;4.43;;
52608;SDS011;38503;48.544;12.142;2022-08-21T03:35:42;5.10;;;4.70;;
52608;SDS011;38503;48.544;12.142;2022-08-21T03:38:10;5.40;;;4.60;;
52608;SDS011;38503;48.544;12.142;2022-08-21T03:40:39;5.70;;;5.20;;
52608;SDS011;38503;48.544;12.142;2022-08-21T03:43:06;5.57;;;5.07;;
52608;SDS011;38503;48.544;12.142;2022-08-21T03:45:35;7.87;;;4.87;;
52608;SDS011;38503;48.544;12.142;2022-08-21T03:48:04;5.83;;;4.63;;
52608;SDS011;38503;48.544;12.142;2022-08-21T03:50:33;5.17;;;4.60;;
52608;SDS011;38503;48.544;12.142;2022-08-21T03:53:07;6.10;;;4.40;;
52608;SDS011;38503;48.544;12.142;2022-08-21T03:55:43;7.53;;;4.90;;
52608;SDS011;38503;48.544;12.142;2022-08-21T03:58:13;5.53;;;4.97;;
52608;SDS011;38503;48.544;12.142;2022-08-21T04:00:44;6.87;;;4.73;;
52608;SDS011;38503;48.544;12.142;2022-08-21T04:03:11;6.63;;;4.83;;
52608;SDS011;38503;48.544;12.142;2022-08-21T04:05:38;7.00;;;5.23;;
52608;SDS011;38503;48.544;12.142;2022-08-21T04:08:06;7.77;;;5.33;;
52608;SDS011;38503;48.544;12.142;2022-08-21T04:10:34;6.10;;;5.60;;
52608;SDS011;38503;48.544;12.142;2022-08-21T04:13:04;5.87;;;5.10;;
52608;SDS011;38503;48.544;12.142;2022-08-21T04:15:31;5.53;;;5.00;;
52608;SDS011;38503;48.544;12.142;2022-08-21T04:17:59;5.80;;;5.30;;
52608;SDS011;38503;48.544;12.142;2022-08-21T04:20:26;6.83;;;5.50;;
52608;SDS011;38503;48.544;12.142;2022-08-21T04:22:53;7.43;;;5.50;;
52608;SDS011;38503;48.544;12.142;2022-08-21T04:25:21;9.63;;;6.50;;
52608;SDS011;38503;48.544;12.142;2022-08-21T04:27:51;7.00;;;5.73;;
52608;SDS011;38503;48.544;12.142;2022-08-21T04:30:18;6.70;;;6.10;;
52608;SDS011;38503;48.544;12.142;2022-08-21T04:32:46;8.37;;;5.70;;
52608;SDS011;38503;48.544;12.142;2022-08-21T04:35:16;6.57;;;5.90;;
52608;SDS011;38503;48.544;12.142;2022-08-21T04:37:47;6.80;;;6.10;;
52608;SDS011;38503;48.544;12.142;2022-08-21T04:40:15;6.60;;;5.80;;
52608;SDS011;38503;48.544;12.142;2022-08-21T04:42:44;7.50;;;5.90;;
52608;SDS011;38503;48.544;12.142;2022-08-21T04:45:19;7.43;;;5.83;;
52608;SDS011;38503;48.544;12.142;2022-08-21T04:47:51;9.33;;;6.70;;
52608;SDS011;38503;48.544;12.142;2022-08-21T04:50:20;7.27;;;5.40;;
52608;SDS011;38503;48.544;12.142;2022-08-21T04:52:50;5.50;;;5.00;;
52608;SDS011;38503;48.544;12.142;2022-08-21T04:55:18;7.03;;;5.37;;
52608;SDS011;38503;48.544;12.142;2022-08-21T04:57:46;6.30;;;5.70;;
52608;SDS011;38503;48.544;12.142;2022-08-21T05:00:15;6.83;;;5.00;;
52608;SDS011;38503;48.544;12.142;2022-08-21T05:02:45;6.00;;;5.37;;
52608;SDS011;38503;48.544;12.142;2022-08-21T05:05:18;13.27;;;5.50;;
52608;SDS011;38503;48.544;12.142;2022-08-21T05:07:45;6.83;;;6.13;;
52608;SDS011;38503;48.544;12.142;2022-08-21T05:10:13;8.43;;;5.33;;
52608;SDS011;38503;48.544;12.142;2022-08-21T05:12:41;6.00;;;5.07;;
52608;SDS011;38503;48.544;12.142;2022-08-21T05:15:09;6.87;;;5.70;;
52608;SDS011;38503;48.544;12.142;2022-08-21T05:17:39;9.80;;;5.83;;
52608;SDS011;38503;48.544;12.142;2022-08-21T05:20:08;6.97;;;5.87;;
52608;SDS011;38503;48.544;12.142;2022-08-21T05:22:36;8.37;;;5.67;;
52608;SDS011;38503;48.544;12.142;2022-08-21T05:25:03;7.07;;;5.90;;
52608;SDS011;38503;48.544;12.142;2022-08-21T05:27:36;8.20;;;6.07;;
52608;SDS011;38503;48.544;12.142;2022-08-21T05:30:07;6.17;;;5.57;;
52608;SDS011;38503;48.544;12.142;2022-08-21T05:32:35;6.47;;;5.80;;
52608;SDS011;38503;48.544;12.142;2022-08-21T05:35:06;6.57;;;5.90;;
52608;SDS011;38503;48.544;12.142;2022-08-21T05:37:34;6.10;;;5.53;;
52608;SDS011;38503;48.544;12.142;2022-08-21T05:40:02;8.13;;;5.70;;
52608;SDS011;38503;48.544;12.142;2022-08-21T05:42:48;5.40;;;4.90;;
52608;SDS011;38503;48.544;12.142;2022-08-21T05:45:24;6.37;;;5.70;;
52608;SDS011;38503;48.544;12.142;2022-08-21T05:48:19;6.27;;;5.70;;
52608;SDS011;38503;48.544;12.142;2022-08-21T05:50:48;7.47;;;5.53;;
52608;SDS011;38503;48.544;12.142;2022-08-21T05:53:16;7.47;;;5.80;;
52608;SDS011;38503;48.544;12.142;2022-08-21T05:55:44;5.90;;;5.30;;
52608;SDS011;38503;48.544;12.142;2022-08-21T05:58:13;5.87;;;5.27;;
52608;SDS011;38503;48.544;12.142;2022-08-21T06:00:41;6.53;;;5.80;;
52608;SDS011;38503;48.544;12.142;2022-08-21T06:03:13;6.87;;;6.00;;
52608;SDS011;38503;48.544;12.142;2022-08-21T06:05:47;5.80;;;5.20;;
52608;SDS011;38503;48.544;12.142;2022-08-21T06:08:15;6.43;;;5.83;;
52608;SDS011;38503;48.544;12.142;2022-08-21T06:10:43;7.57;;;5.27;;
52608;SDS011;38503;48.544;12.142;2022-08-21T06:13:12;9.47;;;5.57;;
52608;SDS011;38503;48.544;12.142;2022-08-21T06:15:40;9.50;;;5.00;;
52608;SDS011;38503;48.544;12.142;2022-08-21T06:18:07;6.17;;;4.60;;
52608;SDS011;38503;48.544;12.142;2022-08-21T06:20:35;6.37;;;4.80;;
52608;SDS011;38503;48.544;12.142;2022-08-21T06:23:02;6.30;;;5.80;;
52608;SDS011;38503;48.544;12.142;2022-08-21T06:25:29;7.30;;;5.03;;
52608;SDS011;38503;48.544;12.142;2022-08-21T06:28:00;6.43;;;4.77;;
52608;SDS011;38503;48.544;12.142;2022-08-21T06:30:32;5.13;;;4.70;;
52608;SDS011;38503;48.544;12.142;2022-08-21T06:32:59;5.20;;;4.70;;
52608;SDS011;38503;48.544;12.142;2022-08-21T06:35:26;5.33;;;4.87;;
52608;SDS011;38503;48.544;12.142;2022-08-21T06:37:55;6.47;;;4.63;;
52608;SDS011;38503;48.544;12.142;2022-08-21T06:40:23;4.70;;;4.30;;
52608;SDS011;38503;48.544;12.142;2022-08-21T06:42:51;5.17;;;4.67;;
52608;SDS011;38503;48.544;12.142;2022-08-21T06:45:19;7.53;;;4.20;;
52608;SDS011;38503;48.544;12.142;2022-08-21T06:47:46;6.90;;;4.47;;
52608;SDS011;38503;48.544;12.142;2022-08-21T06:50:13;5.90;;;4.60;;
52608;SDS011;38503;48.544;12.142;2022-08-21T06:52:40;5.20;;;4.47;;
52608;SDS011;38503;48.544;12.142;2022-08-21T06:55:08;5.20;;;4.80;;
52608;SDS011;38503;48.544;12.142;2022-08-21T06:57:35;5.53;;;4.97;;
52608;SDS011;38503;48.544;12.142;2022-08-21T07:00:04;5.13;;;4.63;;
52608;SDS011;38503;48.544;12.142;2022-08-21T07:02:32;5.60;;;5.00;;
52608;SDS011;38503;48.544;12.142;2022-08-21T07:04:59;7.00;;;4.67;;
52608;SDS011;38503;48.544;12.142;2022-08-21T07:07:40;6.27;;;5.70;;
52608;SDS011;38503;48.544;12.142;2022-08-21T07:10:07;6.53;;;5.93;;
52608;SDS011;38503;48.544;12.142;2022-08-21T07:12:47;9.77;;;8.87;;
52608;SDS011;38503;48.544;12.142;2022-08-21T07:15:15;11.10;;;10.03;;
52608;SDS011;38503;48.544;12.142;2022-08-21T07:17:42;12.40;;;11.10;;
52608;SDS011;38503;48.544;12.142;2022-08-21T07:20:09;12.43;;;10.33;;
52608;SDS011;38503;48.544;12.142;2022-08-21T07:22:38;13.27;;;12.07;;
52608;SDS011;38503;48.544;12.142;2022-08-21T07:25:07;13.57;;;12.33;;
52608;SDS011;38503;48.544;12.142;2022-08-21T07:27:35;13.80;;;12.40;;
52608;SDS011;38503;48.544;12.142;2022-08-21T07:30:03;14.17;;;12.87;;
52608;SDS011;38503;48.544;12.142;2022-08-21T07:32:31;13.60;;;12.20;;
52608;SDS011;38503;48.544;12.142;2022-08-21T07:34:58;14.50;;;13.10;;
52608;SDS011;38503;48.544;12.142;2022-08-21T07:37:25;13.77;;;12.57;;
52608;SDS011;38503;48.544;12.142;2022-08-21T07:39:52;13.97;;;12.67;;
52608;SDS011;38503;48.544;12.142;2022-08-21T07:42:19;12.77;;;11.47;;
52608;SDS011;38503;48.544;12.142;2022-08-21T07:44:46;12.80;;;11.63;;
52608;SDS011;38503;48.544;12.142;2022-08-21T07:47:15;13.27;;;11.87;;
52608;SDS011;38503;48.544;12.142;2022-08-21T07:50:02;13.23;;;12.13;;
52608;SDS011;38503;48.544;12.142;2022-08-21T07:52:30;12.60;;;11.47;;
52608;SDS011;38503;48.544;12.142;2022-08-21T07:54:58;12.80;;;11.63;;
52608;SDS011;38503;48.544;12.142;2022-08-21T07:57:31;13.37;;;12.10;;
52608;SDS011;38503;48.544;12.142;2022-08-21T07:59:58;12.80;;;11.77;;
52608;SDS011;38503;48.544;12.142;2022-08-21T08:02:26;12.83;;;11.73;;
52608;SDS011;38503;48.544;12.142;2022-08-21T08:04:54;12.47;;;11.33;;
52608;SDS011;38503;48.544;12.142;2022-08-21T08:07:24;12.47;;;11.43;;
52608;SDS011;38503;48.544;12.142;2022-08-21T08:09:52;11.10;;;10.10;;
52608;SDS011;38503;48.544;12.142;2022-08-21T08:12:19;11.23;;;10.33;;
52608;SDS011;38503;48.544;12.142;2022-08-21T08:14:46;11.87;;;10.73;;
52608;SDS011;38503;48.544;12.142;2022-08-21T08:17:13;12.37;;;11.27;;
52608;SDS011;38503;48.544;12.142;2022-08-21T08:19:40;12.93;;;11.83;;
52608;SDS011;38503;48.544;12.142;2022-08-21T08:22:14;11.73;;;10.73;;
52608;SDS011;38503;48.544;12.142;2022-08-21T08:24:42;12.73;;;11.50;;
52608;SDS011;38503;48.544;12.142;2022-08-21T08:27:08;12.63;;;11.53;;
52608;SDS011;38503;48.544;12.142;2022-08-21T08:29:35;12.43;;;11.33;;
52608;SDS011;38503;48.544;12.142;2022-08-21T08:32:03;12.33;;;11.23;;
52608;SDS011;38503;48.544;12.142;2022-08-21T08:34:34;11.90;;;10.80;;
52608;SDS011;38503;48.544;12.142;2022-08-21T08:37:01;12.37;;;11.27;;
52608;SDS011;38503;48.544;12.142;2022-08-21T08:39:31;12.13;;;11.03;;
52608;SDS011;38503;48.544;12.142;2022-08-21T08:42:02;12.30;;;11.30;;
52608;SDS011;38503;48.544;12.142;2022-08-21T08:44:54;12.83;;;11.70;;
52608;SDS011;38503;48.544;12.142;2022-08-21T08:47:24;13.40;;;12.33;;
52608;SDS011;38503;48.544;12.142;2022-08-21T08:49:55;13.87;;;12.67;;
52608;SDS011;38503;48.544;12.142;2022-08-21T08:52:30;12.50;;;11.50;;
52608;SDS011;38503;48.544;12.142;2022-08-21T08:55:21;13.13;;;11.93;;
52608;SDS011;38503;48.544;12.142;2022-08-21T08:57:52;12.23;;;11.23;;
52608;SDS011;38503;48.544;12.142;2022-08-21T09:00:21;14.50;;;13.13;;
52608;SDS011;38503;48.544;12.142;2022-08-21T09:02:51;13.30;;;12.10;;
52608;SDS011;38503;48.544;12.142;2022-08-21T09:11:41;12.83;;;11.73;;
52608;SDS011;38503;48.544;12.142;2022-08-21T09:27:54;11.43;;;10.53;;
52608;SDS011;38503;48.544;12.142;2022-08-21T09:30:24;12.80;;;11.80;;
52608;SDS011;38503;48.544;12.142;2022-08-21T09:32:54;12.33;;;11.33;;
52608;SDS011;38503;48.544;12.142;2022-08-21T09:35:22;12.50;;;11.47;;
52608;SDS011;38503;48.544;12.142;2022-08-21T09:40:27;11.60;;;10.57;;
52608;SDS011;38503;48.544;12.142;2022-08-21T09:45:41;12.80;;;11.70;;
52608;SDS011;38503;48.544;12.142;2022-08-21T09:50:42;11.23;;;10.27;;
52608;SDS011;38503;48.544;12.142;2022-08-21T09:53:17;11.60;;;10.43;;
52608;SDS011;38503;48.544;12.142;2022-08-21T09:55:54;12.00;;;11.10;;
52608;SDS011;38503;48.544;12.142;2022-08-21T09:58:47;12.03;;;10.83;;
52608;SDS011;38503;48.544;12.142;2022-08-21T10:01:20;11.53;;;10.63;;
52608;SDS011;38503;48.544;12.142;2022-08-21T10:03:49;12.20;;;11.20;;
52608;SDS011;38503;48.544;12.142;2022-08-21T10:06:33;11.73;;;10.83;;
52608;SDS011;38503;48.544;12.142;2022-08-21T10:11:30;11.67;;;10.77;;
52608;SDS011;38503;48.544;12.142;2022-08-21T10:16:37;10.47;;;9.67;;
52608;SDS011;38503;48.544;12.142;2022-08-21T10:30:52;10.00;;;9.18;;
52608;SDS011;38503;48.544;12.142;2022-08-21T10:33:41;10.47;;;9.47;;
52608;SDS011;38503;48.544;12.142;2022-08-21T10:38:54;10.80;;;9.87;;
52608;SDS011;38503;48.544;12.142;2022-08-21T10:55:48;11.57;;;10.67;;
52608;SDS011;38503;48.544;12.142;2022-08-21T10:58:19;11.30;;;10.30;;
52608;SDS011;38503;48.544;12.142;2022-08-21T11:04:07;10.90;;;10.05;;
52608;SDS011;38503;48.544;12.142;2022-08-21T11:06:39;10.35;;;9.65;;
52608;SDS011;38503;48.544;12.142;2022-08-21T11:09:12;10.25;;;9.45;;
52608;SDS011;38503;48.544;12.142;2022-08-21T11:11:47;11.02;;;10.23;;
52608;SDS011;38503;48.544;12.142;2022-08-21T11:17:35;10.20;;;9.43;;
52608;SDS011;38503;48.544;12.142;2022-08-21T11:20:12;11.27;;;10.18;;
52608;SDS011;38503;48.544;12.142;2022-08-21T11:22:45;10.43;;;9.52;;
52608;SDS011;38503;48.544;12.142;2022-08-21T11:25:33;10.02;;;9.13;;
52608;SDS011;38503;48.544;12.142;2022-08-21T11:28:08;10.63;;;9.68;;
52608;SDS011;38503;48.544;12.142;2022-08-21T11:38:55;10.77;;;9.95;;
52608;SDS011;38503;48.544;12.142;2022-08-21T11:42:02;11.48;;;10.68;;
52608;SDS011;38503;48.544;12.142;2022-08-21T11:47:31;10.48;;;9.68;;
52608;SDS011;38503;48.544;12.142;2022-08-21T11:50:23;10.50;;;9.60;;
52608;SDS011;38503;48.544;12.142;2022-08-21T11:53:46;10.52;;;9.73;;
52608;SDS011;38503;48.544;12.142;2022-08-21T11:56:05;10.27;;;9.48;;
52608;SDS011;38503;48.544;12.142;2022-08-21T11:58:42;11.13;;;10.23;;
52608;SDS011;38503;48.544;12.142;2022-08-21T12:01:20;11.05;;;9.98;;
52608;SDS011;38503;48.544;12.142;2022-08-21T12:04:08;10.70;;;9.80;;
52608;SDS011;38503;48.544;12.142;2022-08-21T12:06:55;9.88;;;9.02;;
52608;SDS011;38503;48.544;12.142;2022-08-21T12:14:51;8.23;;;7.53;;
52608;SDS011;38503;48.544;12.142;2022-08-21T12:17:36;10.48;;;9.57;;
52608;SDS011;38503;48.544;12.142;2022-08-21T12:20:32;9.88;;;9.18;;
52608;SDS011;38503;48.544;12.142;2022-08-21T12:26:10;10.40;;;9.60;;
52608;SDS011;38503;48.544;12.142;2022-08-21T12:28:48;10.60;;;9.80;;
52608;SDS011;38503;48.544;12.142;2022-08-21T12:31:25;11.65;;;10.75;;
52608;SDS011;38503;48.544;12.142;2022-08-21T12:33:58;11.30;;;10.50;;
52608;SDS011;38503;48.544;12.142;2022-08-21T12:36:39;10.43;;;9.63;;
52608;SDS011;38503;48.544;12.142;2022-08-21T12:39:19;10.20;;;9.50;;
52608;SDS011;38503;48.544;12.142;2022-08-21T12:41:53;10.30;;;9.50;;
52608;SDS011;38503;48.544;12.142;2022-08-21T12:44:43;10.38;;;9.57;;
52608;SDS011;38503;48.544;12.142;2022-08-21T12:53:01;7.80;;;6.80;;
52608;SDS011;38503;48.544;12.142;2022-08-21T12:55:45;6.85;;;6.35;;
52608;SDS011;38503;48.544;12.142;2022-08-21T12:58:16;5.90;;;5.50;;
52608;SDS011;38503;48.544;12.142;2022-08-21T13:00:52;6.57;;;6.07;;
52608;SDS011;38503;48.544;12.142;2022-08-21T13:03:22;6.72;;;6.05;;
52608;SDS011;38503;48.544;12.142;2022-08-21T13:05:50;7.07;;;6.57;;
52608;SDS011;38503;48.544;12.142;2022-08-21T13:08:18;7.45;;;6.95;;
52608;SDS011;38503;48.544;12.142;2022-08-21T13:10:49;6.90;;;6.30;;
52608;SDS011;38503;48.544;12.142;2022-08-21T13:13:40;6.15;;;5.65;;
52608;SDS011;38503;48.544;12.142;2022-08-21T13:16:17;6.03;;;5.50;;
52608;SDS011;38503;48.544;12.142;2022-08-21T13:18:58;5.95;;;5.45;;
52608;SDS011;38503;48.544;12.142;2022-08-21T13:21:31;5.90;;;5.40;;
52608;SDS011;38503;48.544;12.142;2022-08-21T13:27:26;5.70;;;5.30;;
52608;SDS011;38503;48.544;12.142;2022-08-21T13:30:05;5.75;;;5.25;;
52608;SDS011;38503;48.544;12.142;2022-08-21T13:32:52;6.13;;;5.63;;
52608;SDS011;38503;48.544;12.142;2022-08-21T13:35:28;6.63;;;6.03;;
52608;SDS011;38503;48.544;12.142;2022-08-21T13:38:17;5.15;;;4.75;;
52608;SDS011;38503;48.544;12.142;2022-08-21T13:40:55;5.35;;;4.95;;
52608;SDS011;38503;48.544;12.142;2022-08-21T13:43:26;4.60;;;3.70;;
52608;SDS011;38503;48.544;12.142;2022-08-21T13:45:56;4.00;;;3.70;;
52608;SDS011;38503;48.544;12.142;2022-08-21T13:48:28;4.38;;;3.97;;
52608;SDS011;38503;48.544;12.142;2022-08-21T13:50:59;3.78;;;3.47;;
52608;SDS011;38503;48.544;12.142;2022-08-21T13:53:43;4.82;;;4.22;;
52608;SDS011;38503;48.544;12.142;2022-08-21T13:59:10;4.03;;;3.72;;
52608;SDS011;38503;48.544;12.142;2022-08-21T14:01:51;4.20;;;3.80;;
52608;SDS011;38503;48.544;12.142;2022-08-21T14:04:29;5.07;;;4.47;;
52608;SDS011;38503;48.544;12.142;2022-08-21T14:07:01;4.78;;;4.38;;
52608;SDS011;38503;48.544;12.142;2022-08-21T14:09:40;4.67;;;4.20;;
52608;SDS011;38503;48.544;12.142;2022-08-21T14:12:13;4.67;;;4.27;;
52608;SDS011;38503;48.544;12.142;2022-08-21T14:14:51;4.63;;;4.23;;
52608;SDS011;38503;48.544;12.142;2022-08-21T14:17:29;6.17;;;4.30;;
52608;SDS011;38503;48.544;12.142;2022-08-21T14:19:59;4.93;;;4.50;;
52608;SDS011;38503;48.544;12.142;2022-08-21T14:22:28;4.93;;;4.53;;
52608;SDS011;38503;48.544;12.142;2022-08-21T14:25:07;5.13;;;4.63;;
52608;SDS011;38503;48.544;12.142;2022-08-21T14:28:14;4.97;;;4.30;;
52608;SDS011;38503;48.544;12.142;2022-08-21T14:30:53;5.13;;;4.40;;
52608;SDS011;38503;48.544;12.142;2022-08-21T14:33:26;4.73;;;4.33;;
52608;SDS011;38503;48.544;12.142;2022-08-21T14:35:54;4.30;;;3.90;;
52608;SDS011;38503;48.544;12.142;2022-08-21T14:38:23;4.67;;;4.27;;
52608;SDS011;38503;48.544;12.142;2022-08-21T14:40:53;4.20;;;3.90;;
52608;SDS011;38503;48.544;12.142;2022-08-21T14:43:22;4.60;;;3.47;;
52608;SDS011;38503;48.544;12.142;2022-08-21T14:45:51;5.30;;;4.27;;
52608;SDS011;38503;48.544;12.142;2022-08-21T14:48:18;4.03;;;3.73;;
52608;SDS011;38503;48.544;12.142;2022-08-21T14:50:45;4.30;;;3.90;;
52608;SDS011;38503;48.544;12.142;2022-08-21T14:53:12;4.47;;;4.07;;
52608;SDS011;38503;48.544;12.142;2022-08-21T14:55:39;4.30;;;3.90;;
52608;SDS011;38503;48.544;12.142;2022-08-21T14:58:25;4.60;;;4.17;;
52608;SDS011;38503;48.544;12.142;2022-08-21T15:00:53;4.70;;;4.00;;
52608;SDS011;38503;48.544;12.142;2022-08-21T15:03:20;4.20;;;3.80;;
52608;SDS011;38503;48.544;12.142;2022-08-21T15:05:52;6.07;;;3.90;;
52608;SDS011;38503;48.544;12.142;2022-08-21T15:08:19;4.27;;;3.87;;
52608;SDS011;38503;48.544;12.142;2022-08-21T15:10:46;4.03;;;3.73;;
52608;SDS011;38503;48.544;12.142;2022-08-21T15:13:33;5.27;;;3.83;;
52608;SDS011;38503;48.544;12.142;2022-08-21T15:16:00;4.30;;;4.00;;
52608;SDS011;38503;48.544;12.142;2022-08-21T15:18:28;4.53;;;4.13;;
52608;SDS011;38503;48.544;12.142;2022-08-21T15:20:56;4.20;;;3.87;;
52608;SDS011;38503;48.544;12.142;2022-08-21T15:23:23;4.33;;;3.93;;
52608;SDS011;38503;48.544;12.142;2022-08-21T15:25:50;5.20;;;4.80;;
52608;SDS011;38503;48.544;12.142;2022-08-21T15:28:19;4.30;;;3.93;;
52608;SDS011;38503;48.544;12.142;2022-08-21T15:30:50;4.77;;;4.37;;
52608;SDS011;38503;48.544;12.142;2022-08-21T15:33:17;5.63;;;4.27;;
52608;SDS011;38503;48.544;12.142;2022-08-21T15:35:44;5.83;;;5.33;;
52608;SDS011;38503;48.544;12.142;2022-08-21T15:38:12;4.50;;;4.10;;
52608;SDS011;38503;48.544;12.142;2022-08-21T15:40:41;4.83;;;4.43;;
52608;SDS011;38503;48.544;12.142;2022-08-21T15:43:27;5.00;;;4.60;;
52608;SDS011;38503;48.544;12.142;2022-08-21T15:45:59;4.60;;;4.20;;
52608;SDS011;38503;48.544;12.142;2022-08-21T15:48:27;4.60;;;4.20;;
52608;SDS011;38503;48.544;12.142;2022-08-21T15:50:54;4.40;;;4.10;;
52608;SDS011;38503;48.544;12.142;2022-08-21T15:53:21;4.60;;;4.30;;
52608;SDS011;38503;48.544;12.142;2022-08-21T15:55:48;4.80;;;4.40;;
52608;SDS011;38503;48.544;12.142;2022-08-21T15:58:15;4.70;;;4.30;;
52608;SDS011;38503;48.544;12.142;2022-08-21T16:00:44;4.67;;;4.27;;
52608;SDS011;38503;48.544;12.142;2022-08-21T16:03:14;5.00;;;4.60;;
52608;SDS011;38503;48.544;12.142;2022-08-21T16:05:44;4.80;;;4.40;;
52608;SDS011;38503;48.544;12.142;2022-08-21T16:08:14;4.80;;;4.40;;
52608;SDS011;38503;48.544;12.142;2022-08-21T16:10:42;4.80;;;4.40;;
52608;SDS011;38503;48.544;12.142;2022-08-21T16:13:12;5.03;;;4.53;;
52608;SDS011;38503;48.544;12.142;2022-08-21T16:15:44;4.77;;;4.10;;
52608;SDS011;38503;48.544;12.142;2022-08-21T16:18:12;4.50;;;4.10;;
52608;SDS011;38503;48.544;12.142;2022-08-21T16:20:39;4.87;;;4.47;;
52608;SDS011;38503;48.544;12.142;2022-08-21T16:23:06;5.20;;;4.80;;
52608;SDS011;38503;48.544;12.142;2022-08-21T16:25:34;4.97;;;4.57;;
52608;SDS011;38503;48.544;12.142;2022-08-21T16:28:06;4.50;;;4.10;;
52608;SDS011;38503;48.544;12.142;2022-08-21T16:30:38;4.20;;;3.90;;